Time;durP1;ratioP1;P1;durP2;ratioP2;P2;SDS_P1;SDS_P2;PMS_P1;PMS_P2;Temp;Humidity;BMP_temperature;BMP_pressure;BME280_temperature;BME280_humidity;BME280_pressure;Samples;Min_cycle;Max_cycle;Signal;HPM_P1;HPM_P2
2021/03/24 00:13:51;;;;;;;26.73;19.52;;;14.80;57.90;;;;;;5763955;24;20019;-82
2021/03/24 00:24:45;;;;;;;24.38;19.25;;;14.70;57.50;;;;;;5919795;23;20023;-81
2021/03/24 00:31:13;;;;;;;26.77;20.42;;;14.70;57.30;;;;;;6216340;23;20409;-83
2021/03/24 01:17:43;;;;;;;;;;;;;;;;;;;;;
2021/03/24 01:52:40;;;;;;;;;;;;;;;;;;;;;
2021/03/24 02:09:17;;;;;;;;;;;;;;;;;;;;;
2021/03/24 02:16:14;;;;;;;36.25;26.25;;;14.40;57.40;;;;;;5818487;24;20021;-82
2021/03/24 02:19:27;;;;;;;34.80;28.25;;;14.40;57.50;;;;;;5888846;24;20028;-82
2021/03/24 02:23:07;;;;;;;35.20;27.00;;;14.40;57.60;;;;;;6085553;23;20022;-82
2021/03/24 02:26:42;;;;;;;37.50;27.77;;;14.40;57.50;;;;;;6087750;23;20018;-82
2021/03/24 02:29:55;;;;;;;38.55;27.75;;;14.40;57.50;;;;;;6163583;23;20021;-83
2021/03/24 02:32:51;;;;;;;37.30;27.67;;;14.40;57.50;;;;;;6185432;23;20009;-82
2021/03/24 02:35:59;;;;;;;38.55;27.95;;;14.30;57.50;;;;;;6167463;23;20017;-81
2021/03/24 02:38:53;;;;;;;35.22;27.15;;;14.30;57.50;;;;;;6165520;23;20017;-82
2021/03/24 02:41:43;;;;;;;40.30;29.47;;;14.30;57.50;;;;;;6186513;23;20045;-82
2021/03/24 02:44:29;;;;;;;36.60;26.73;;;14.30;57.70;;;;;;6167587;23;20017;-82
2021/03/24 02:47:16;;;;;;;37.28;28.70;;;14.30;57.70;;;;;;6167168;23;20103;-82
2021/03/24 02:50:05;;;;;;;35.78;26.85;;;14.30;57.80;;;;;;6167781;23;20504;-82
2021/03/24 02:53:00;;;;;;;37.55;27.80;;;14.30;57.80;;;;;;6168830;23;20318;-83
2021/03/24 02:55:55;;;;;;;37.28;26.60;;;14.40;57.70;;;;;;6167822;23;20433;-80
2021/03/24 02:58:44;;;;;;;37.50;28.30;;;14.30;57.60;;;;;;6167364;23;20017;-82
2021/03/24 03:01:45;;;;;;;40.05;29.23;;;14.30;57.70;;;;;;6147249;23;20013;-82
2021/03/24 03:04:36;;;;;;;35.85;27.50;;;14.30;57.70;;;;;;6168198;23;20024;-82
2021/03/24 03:07:37;;;;;;;38.17;28.17;;;14.30;57.80;;;;;;6167324;23;20024;-82
2021/03/24 03:10:39;;;;;;;37.95;29.20;;;14.30;57.60;;;;;;6167306;23;20021;-81
2021/03/24 03:13:51;;;;;;;37.17;28.80;;;14.30;57.70;;;;;;6167647;23;20442;-82
2021/03/24 03:16:49;;;;;;;38.08;28.15;;;14.30;57.50;;;;;;6167788;23;20025;-82
2021/03/24 03:19:49;;;;;;;40.55;28.63;;;14.30;57.50;;;;;;6167344;23;20083;-83
2021/03/24 03:22:44;;;;;;;36.58;28.40;;;14.30;57.50;;;;;;6167917;23;20076;-82
2021/03/24 03:25:37;;;;;;;34.47;28.48;;;14.20;57.50;;;;;;6167372;23;20101;-83
2021/03/24 03:28:28;;;;;;;36.85;28.00;;;14.20;57.50;;;;;;6167116;23;20052;-83
2021/03/24 03:31:19;;;;;;;38.80;27.75;;;14.20;57.50;;;;;;6167515;23;20017;-81
2021/03/24 03:34:12;;;;;;;37.33;27.65;;;14.20;57.60;;;;;;6167379;23;20021;-82
2021/03/24 03:37:05;;;;;;;35.58;27.75;;;14.20;57.50;;;;;;6167816;23;20021;-81
2021/03/24 03:39:55;;;;;;;39.50;27.98;;;14.20;57.60;;;;;;6167531;23;20017;-82
2021/03/24 03:42:44;;;;;;;36.88;27.70;;;14.20;57.40;;;;;;6187566;23;20013;-81
2021/03/24 03:45:31;;;;;;;37.28;27.88;;;14.20;57.40;;;;;;6167376;23;20411;-81
2021/03/24 03:48:21;;;;;;;36.35;27.70;;;14.20;57.50;;;;;;6166659;23;20088;-83
2021/03/24 03:51:21;;;;;;;38.47;27.08;;;14.20;57.40;;;;;;6167132;23;20032;-81
2021/03/24 03:54:29;;;;;;;35.00;27.00;;;14.20;57.40;;;;;;6187046;23;20462;-81
2021/03/24 03:57:33;;;;;;;34.65;27.35;;;14.20;57.50;;;;;;6181808;23;20075;-83
2021/03/24 04:00:53;;;;;;;37.90;27.88;;;14.10;57.40;;;;;;6196805;23;20013;-82
2021/03/24 04:03:57;;;;;;;37.00;27.40;;;14.10;57.40;;;;;;6196885;23;20302;-82
2021/03/24 04:07:06;;;;;;;34.85;27.23;;;14.10;57.40;;;;;;6196122;23;20021;-83
2021/03/24 04:09:58;;;;;;;38.60;27.70;;;14.10;57.40;;;;;;6196618;23;20430;-81
2021/03/24 04:13:04;;;;;;;35.80;26.17;;;14.10;57.30;;;;;;6197725;23;20044;-82
2021/03/24 04:16:02;;;;;;;35.78;26.25;;;14.10;57.40;;;;;;6198807;23;20484;-81
2021/03/24 04:19:33;;;;;;;35.15;26.27;;;14.10;57.40;;;;;;6196770;23;20042;-82
2021/03/24 04:26:54;;;;;;;37.17;28.17;;;14.00;57.30;;;;;;6126819;23;20061;-83
2021/03/24 04:30:09;;;;;;;36.55;26.98;;;14.00;57.30;;;;;;6056722;23;20018;-82
2021/03/24 04:33:21;;;;;;;37.60;26.92;;;14.00;57.30;;;;;;6096041;23;20019;-82
2021/03/24 04:37:20;;;;;;;36.60;27.92;;;14.10;57.60;;;;;;6097949;23;20424;-84
2021/03/24 04:56:01;;;;;;;;;;;;;;;;;;;;;
2021/03/24 04:59:44;;;;;;;35.45;28.38;;;13.90;57.70;;;;;;6118552;23;20021;-82
2021/03/24 05:03:11;;;;;;;41.88;29.33;;;13.90;57.80;;;;;;6128581;23;20014;-83
2021/03/24 05:06:39;;;;;;;39.05;28.70;;;13.90;57.60;;;;;;6128134;23;20355;-81
2021/03/24 05:09:52;;;;;;;37.40;28.27;;;13.90;57.60;;;;;;6069192;23;20023;-82
2021/03/24 05:13:20;;;;;;;41.47;30.10;;;13.90;57.90;;;;;;6048019;23;20018;-82
2021/03/24 05:16:41;;;;;;;41.13;29.05;;;13.90;57.60;;;;;;6052712;23;20022;-81
2021/03/24 05:19:38;;;;;;;41.85;30.05;;;13.90;57.60;;;;;;6169058;23;20326;-81
2021/03/24 05:22:45;;;;;;;42.70;30.35;;;13.90;57.80;;;;;;6173227;23;20024;-81
2021/03/24 05:25:53;;;;;;;41.50;29.80;;;13.90;57.60;;;;;;6195604;23;20044;-81
2021/03/24 05:28:42;;;;;;;39.60;27.98;;;13.90;57.30;;;;;;6174743;23;20016;-78
2021/03/24 05:31:38;;;;;;;38.75;27.52;;;13.90;57.60;;;;;;6196127;23;20012;-82
2021/03/24 05:34:31;;;;;;;36.75;27.60;;;13.90;58.00;;;;;;6174212;23;20016;-82
2021/03/24 05:37:18;;;;;;;43.38;27.63;;;14.00;58.00;;;;;;6192830;23;20016;-77
2021/03/24 05:44:19;;;;;;;34.33;22.75;;;14.30;57.90;;;;;;6139693;23;20016;-79
2021/03/24 05:47:43;;;;;;;31.05;21.45;;;14.60;58.30;;;;;;6196001;23;20413;-83
2021/03/24 05:50:44;;;;;;;28.00;20.15;;;14.80;58.00;;;;;;6093492;23;20029;-76
2021/03/24 05:53:49;;;;;;;29.23;20.10;;;15.00;57.90;;;;;;6195597;23;20114;-74
2021/03/24 05:56:53;;;;;;;25.23;16.88;;;15.20;58.00;;;;;;6195573;23;20070;-74
2021/03/24 05:59:51;;;;;;;25.08;17.92;;;15.30;57.70;;;;;;6195811;23;20119;-76
2021/03/24 06:02:57;;;;;;;32.97;16.52;;;15.50;57.90;;;;;;6194898;23;20019;-79
2021/03/24 06:05:58;;;;;;;26.95;17.05;;;15.70;58.10;;;;;;6191902;23;20074;-77
2021/03/24 06:09:06;;;;;;;29.15;17.33;;;15.90;58.30;;;;;;6195211;23;20016;-78
2021/03/24 06:12:23;;;;;;;24.17;15.85;;;16.00;58.10;;;;;;6195676;23;20078;-76
2021/03/24 06:15:37;;;;;;;30.40;18.52;;;16.20;58.20;;;;;;6195578;23;20017;-78
2021/03/24 06:18:35;;;;;;;23.98;16.60;;;16.20;58.60;;;;;;6195531;23;20110;-77
2021/03/24 06:21:32;;;;;;;30.83;16.60;;;16.20;58.50;;;;;;6197233;23;20012;-78
2021/03/24 06:24:30;;;;;;;31.48;15.70;;;16.30;58.80;;;;;;6197456;23;20013;-77
2021/03/24 06:27:39;;;;;;;23.80;16.23;;;16.30;58.90;;;;;;6197428;23;20012;-76
2021/03/24 06:30:31;;;;;;;26.95;17.23;;;16.40;58.80;;;;;;6197424;23;20024;-77
2021/03/24 06:33:35;;;;;;;28.70;17.40;;;16.50;58.70;;;;;;6197000;23;20304;-77
2021/03/24 06:36:35;;;;;;;30.00;18.52;;;16.60;58.50;;;;;;6197590;23;20016;-76
2021/03/24 06:39:33;;;;;;;36.25;18.15;;;16.60;58.30;;;;;;6197170;23;20012;-79
2021/03/24 06:42:59;;;;;;;38.47;17.77;;;16.60;58.50;;;;;;6197445;23;20017;-78
2021/03/24 06:46:07;;;;;;;46.25;25.27;;;16.60;58.50;;;;;;6197404;23;20048;-74
2021/03/24 06:49:20;;;;;;;31.35;21.10;;;16.50;57.90;;;;;;6197553;23;20024;-74
2021/03/24 06:52:33;;;;;;;40.60;21.90;;;16.40;57.90;;;;;;6193307;23;20017;-73
2021/03/24 06:55:56;;;;;;;36.53;21.90;;;16.40;57.90;;;;;;6197334;23;20017;-74
2021/03/24 06:58:50;;;;;;;34.33;22.25;;;16.40;57.80;;;;;;6196524;23;20035;-73
2021/03/24 07:02:21;;;;;;;49.90;26.70;;;16.40;57.70;;;;;;6197382;23;20088;-73
2021/03/24 07:05:32;;;;;;;35.30;22.27;;;16.30;57.10;;;;;;6198275;23;20314;-72
2021/03/24 07:08:36;;;;;;;45.38;22.83;;;16.30;57.40;;;;;;6197318;23;20047;-73
2021/03/24 07:12:00;;;;;;;35.15;23.60;;;16.30;57.70;;;;;;6197567;23;20016;-75
2021/03/24 07:14:53;;;;;;;40.20;23.48;;;16.20;57.80;;;;;;6197621;23;20360;-76
2021/03/24 07:17:50;;;;;;;38.60;22.25;;;16.20;57.90;;;;;;6197254;23;20290;-76
2021/03/24 07:21:07;;;;;;;34.90;22.98;;;16.10;58.00;;;;;;6197542;23;20354;-73
2021/03/24 07:23:56;;;;;;;34.75;22.50;;;16.10;57.90;;;;;;6197362;23;20016;-75
2021/03/24 07:27:09;;;;;;;37.08;22.00;;;16.10;58.10;;;;;;6197448;23;20021;-75
2021/03/24 07:30:20;;;;;;;35.15;21.85;;;16.00;58.10;;;;;;6196945;23;20095;-75
2021/03/24 07:33:34;;;;;;;38.40;22.60;;;16.00;57.90;;;;;;6160776;23;20079;-74
2021/03/24 07:36:35;;;;;;;33.27;21.40;;;16.00;58.00;;;;;;6197480;23;20354;-74
2021/03/24 07:39:49;;;;;;;35.47;21.67;;;15.90;58.10;;;;;;6197126;23;20422;-75
2021/03/24 07:42:50;;;;;;;36.80;22.67;;;15.90;58.30;;;;;;6197298;23;20170;-73
2021/03/24 07:45:39;;;;;;;34.78;21.25;;;15.90;58.40;;;;;;6175752;23;20012;-75
2021/03/24 07:49:02;;;;;;;36.42;21.73;;;15.90;58.60;;;;;;6196949;23;20020;-77
2021/03/24 07:52:01;;;;;;;42.75;27.80;;;15.90;58.70;;;;;;6197021;23;20016;-74
2021/03/24 07:55:03;;;;;;;47.95;31.95;;;15.80;58.00;;;;;;6196925;23;20012;-75
2021/03/24 07:58:05;;;;;;;46.83;33.05;;;15.70;57.20;;;;;;6196496;23;20017;-75
2021/03/24 08:00:58;;;;;;;46.78;35.28;;;15.60;57.00;;;;;;6196939;23;20043;-74
2021/03/24 08:03:51;;;;;;;53.57;36.60;;;15.50;56.90;;;;;;6196699;23;20091;-73
2021/03/24 08:07:11;;;;;;;53.03;36.30;;;15.30;56.70;;;;;;6197230;23;20013;-75
2021/03/24 08:10:02;;;;;;;49.08;35.25;;;15.30;56.90;;;;;;6197047;23;20091;-74
2021/03/24 08:12:57;;;;;;;63.40;37.90;;;15.20;56.90;;;;;;6197285;23;20087;-73
2021/03/24 08:15:55;;;;;;;53.08;37.45;;;15.20;56.90;;;;;;6196473;23;20012;-79
2021/03/24 08:19:02;;;;;;;52.03;37.47;;;15.10;56.80;;;;;;6185845;23;20031;-76
2021/03/24 08:21:39;;;;;;;55.13;40.00;;;15.00;56.50;;;;;;6228485;23;20027;-74
2021/03/24 08:24:28;;;;;;;55.83;38.20;;;14.80;56.60;;;;;;6228652;23;20031;-76
2021/03/24 08:27:02;;;;;;;60.35;36.63;;;14.70;56.70;;;;;;6228619;23;20019;-75
2021/03/24 08:29:32;;;;;;;56.38;33.03;;;14.60;57.50;;;;;;6228154;23;20012;-73
2021/03/24 08:32:44;;;;;;;46.55;34.00;;;14.60;57.50;;;;;;6228557;23;20062;-76
2021/03/24 08:35:22;;;;;;;48.13;34.08;;;14.70;57.50;;;;;;6228127;23;20079;-74
2021/03/24 08:38:09;;;;;;;46.25;33.20;;;14.70;57.30;;;;;;6228618;23;20005;-75
2021/03/24 08:41:06;;;;;;;51.75;36.30;;;14.70;57.30;;;;;;6228355;23;20016;-75
2021/03/24 08:43:56;;;;;;;49.72;35.55;;;14.70;57.00;;;;;;6228786;23;20008;-74
2021/03/24 08:46:36;;;;;;;52.08;35.15;;;14.70;57.00;;;;;;6227002;23;20016;-74
2021/03/24 08:49:14;;;;;;;51.85;36.80;;;14.60;57.00;;;;;;6227583;23;20027;-76
2021/03/24 08:51:52;;;;;;;53.28;36.05;;;14.50;57.30;;;;;;6227717;23;20008;-75
2021/03/24 08:54:48;;;;;;;54.60;38.67;;;14.50;57.40;;;;;;6227519;23;20013;-76
2021/03/24 08:57:17;;;;;;;55.20;36.35;;;14.50;57.50;;;;;;6217530;23;20071;-77
2021/03/24 09:00:07;;;;;;;52.72;34.45;;;14.50;57.50;;;;;;6228180;23;20020;-76
2021/03/24 09:02:55;;;;;;;46.45;33.47;;;14.50;57.60;;;;;;6228669;23;20013;-75
2021/03/24 09:05:51;;;;;;;46.60;33.25;;;14.50;57.60;;;;;;6228137;23;20012;-75
2021/03/24 09:08:44;;;;;;;47.90;33.13;;;14.60;57.80;;;;;;6228530;23;20020;-76
2021/03/24 09:11:22;;;;;;;41.70;30.58;;;14.60;57.70;;;;;;6217673;23;20017;-75
2021/03/24 09:14:07;;;;;;;40.88;29.55;;;14.70;57.70;;;;;;6228058;23;20066;-76
2021/03/24 09:17:04;;;;;;;41.65;29.75;;;14.70;57.70;;;;;;6227977;23;20013;-78
2021/03/24 09:20:00;;;;;;;43.50;29.10;;;14.80;57.80;;;;;;6177013;23;20024;-77
2021/03/24 09:22:41;;;;;;;40.78;28.05;;;14.80;57.80;;;;;;6227583;23;20452;-74
2021/03/24 09:25:25;;;;;;;40.90;30.00;;;14.80;57.80;;;;;;6228612;23;20036;-76
2021/03/24 09:28:13;;;;;;;38.55;27.58;;;14.90;57.80;;;;;;6228156;23;20402;-75
2021/03/24 09:30:57;;;;;;;38.00;27.25;;;14.90;57.80;;;;;;6228072;23;20039;-75
2021/03/24 09:33:47;;;;;;;37.70;27.15;;;14.90;57.90;;;;;;6227673;23;20410;-75
2021/03/24 09:36:54;;;;;;;41.60;26.20;;;14.90;57.80;;;;;;6227252;23;20012;-76
2021/03/24 09:39:49;;;;;;;38.85;26.23;;;14.90;57.80;;;;;;6228732;23;20421;-76
2021/03/24 09:42:34;;;;;;;37.15;26.77;;;15.00;57.90;;;;;;6217024;23;20028;-75
2021/03/24 09:45:09;;;;;;;34.42;25.38;;;15.00;57.90;;;;;;6227626;23;20058;-75
2021/03/24 09:48:00;;;;;;;32.85;24.30;;;14.90;57.80;;;;;;6226546;23;20017;-78
2021/03/24 09:50:51;;;;;;;34.58;24.17;;;15.00;57.90;;;;;;6227783;23;20032;-76
2021/03/24 09:53:25;;;;;;;33.63;23.73;;;15.00;57.90;;;;;;6216496;23;20017;-76
2021/03/24 09:55:54;;;;;;;30.92;23.15;;;15.00;57.80;;;;;;6226779;23;20024;-77
2021/03/24 09:58:23;;;;;;;32.40;23.15;;;15.00;57.90;;;;;;6221833;23;20013;-76
2021/03/24 10:01:11;;;;;;;32.83;22.45;;;15.00;58.10;;;;;;6228171;23;20016;-76
2021/03/24 10:03:58;;;;;;;31.02;21.73;;;15.10;58.20;;;;;;6227150;23;20012;-75
2021/03/24 10:06:39;;;;;;;29.95;23.35;;;15.10;58.30;;;;;;6227578;23;20016;-75
2021/03/24 10:09:36;;;;;;;31.40;22.23;;;15.10;58.40;;;;;;6227977;23;20013;-76
2021/03/24 10:12:38;;;;;;;29.10;20.02;;;15.10;58.20;;;;;;6194683;23;20024;-76
2021/03/24 10:15:31;;;;;;;27.45;20.23;;;15.10;58.20;;;;;;6216434;23;20013;-75
2021/03/24 10:18:29;;;;;;;25.90;19.87;;;15.20;58.20;;;;;;6217379;23;20094;-75
2021/03/24 10:21:14;;;;;;;28.50;21.25;;;15.10;58.30;;;;;;6227563;23;20336;-77
2021/03/24 10:23:49;;;;;;;27.17;19.25;;;15.20;58.40;;;;;;6227115;23;20023;-76
2021/03/24 10:26:40;;;;;;;30.95;20.50;;;15.20;58.60;;;;;;6226527;23;20406;-77
2021/03/24 10:29:14;;;;;;;27.65;20.17;;;15.20;58.60;;;;;;6226720;23;20020;-75
2021/03/24 10:31:41;;;;;;;26.98;19.60;;;15.20;58.60;;;;;;6227326;23;20008;-74
2021/03/24 10:34:13;;;;;;;28.52;20.13;;;15.20;58.60;;;;;;6201185;23;20020;-77
2021/03/24 10:36:57;;;;;;;28.90;21.05;;;15.20;58.40;;;;;;6227706;23;20062;-75
2021/03/24 10:39:59;;;;;;;30.13;19.48;;;15.20;58.40;;;;;;6227289;23;20078;-75
2021/03/24 10:42:44;;;;;;;29.58;19.83;;;15.20;58.30;;;;;;6227978;23;20306;-75
2021/03/24 10:45:44;;;;;;;27.30;19.75;;;15.20;58.40;;;;;;6218733;23;20294;-76
2021/03/24 10:48:57;;;;;;;25.98;17.70;;;15.20;58.40;;;;;;6195654;23;20091;-73
2021/03/24 10:51:59;;;;;;;34.72;24.38;;;15.10;58.50;;;;;;6195117;23;20176;-75
2021/03/24 10:54:28;;;;;;;36.30;25.48;;;15.20;58.10;;;;;;6227255;23;20051;-78
2021/03/24 10:57:18;;;;;;;36.78;24.98;;;15.10;57.90;;;;;;6201041;23;20004;-74
2021/03/24 11:00:16;;;;;;;33.90;23.60;;;15.10;57.80;;;;;;6227123;23;20016;-76
2021/03/24 11:02:53;;;;;;;30.90;22.88;;;15.10;57.90;;;;;;6228178;23;20021;-78
2021/03/24 11:05:27;;;;;;;32.22;22.52;;;15.10;57.90;;;;;;6228373;23;20402;-77
2021/03/24 11:08:08;;;;;;;29.08;23.13;;;15.10;57.90;;;;;;6229395;23;20009;-76
2021/03/24 11:10:46;;;;;;;31.63;22.20;;;15.10;57.90;;;;;;6219387;23;20085;-76
2021/03/24 11:13:22;;;;;;;28.83;21.25;;;15.10;57.90;;;;;;6229252;23;20028;-75
2021/03/24 11:16:13;;;;;;;24.65;18.60;;;15.10;58.20;;;;;;6229337;23;20074;-76
2021/03/24 11:18:46;;;;;;;25.20;17.60;;;15.20;58.30;;;;;;6228839;23;20075;-75
2021/03/24 11:21:33;;;;;;;22.23;16.08;;;15.30;58.20;;;;;;6228806;23;20012;-75
2021/03/24 11:24:44;;;;;;;22.67;15.05;;;15.50;58.10;;;;;;6228652;23;20017;-75
2021/03/24 11:27:18;;;;;;;21.05;15.20;;;15.80;57.90;;;;;;6191132;23;20016;-76
2021/03/24 11:30:11;;;;;;;20.25;13.65;;;16.00;57.40;;;;;;6228928;23;20012;-75
2021/03/24 11:32:55;;;;;;;21.23;12.85;;;16.20;57.30;;;;;;6173485;23;20016;-74
2021/03/24 11:35:36;;;;;;;16.75;12.25;;;16.30;57.00;;;;;;6228779;23;20075;-76
2021/03/24 11:38:28;;;;;;;19.40;12.85;;;16.40;56.80;;;;;;6228505;23;20023;-74
2021/03/24 11:40:54;;;;;;;18.13;12.80;;;16.50;56.50;;;;;;6228836;23;20012;-75
2021/03/24 11:43:29;;;;;;;16.40;11.38;;;16.60;56.40;;;;;;6228965;23;20008;-76
2021/03/24 11:46:42;;;;;;;14.93;11.05;;;16.60;56.40;;;;;;6228984;23;20097;-75
2021/03/24 11:49:45;;;;;;;17.02;10.77;;;16.70;56.40;;;;;;6208032;23;20009;-77
2021/03/24 11:52:53;;;;;;;15.05;11.32;;;16.80;56.30;;;;;;6228436;23;20012;-76
2021/03/24 11:55:39;;;;;;;16.98;10.55;;;16.80;56.20;;;;;;6229412;23;20409;-76
2021/03/24 11:58:42;;;;;;;16.30;9.38;;;16.90;56.30;;;;;;6224542;23;20390;-75
2021/03/24 12:01:50;;;;;;;14.85;8.85;;;16.90;56.30;;;;;;6228934;23;20058;-74
2021/03/24 12:04:39;;;;;;;14.48;8.13;;;17.00;56.30;;;;;;6137941;23;20023;-76
2021/03/24 12:07:40;;;;;;;16.17;9.88;;;17.00;56.30;;;;;;6228814;23;20019;-76
2021/03/24 12:10:15;;;;;;;11.30;8.00;;;17.10;56.10;;;;;;6228837;23;20036;-75
2021/03/24 12:12:42;;;;;;;12.52;8.15;;;17.20;56.00;;;;;;6229209;23;20016;-76
2021/03/24 12:15:16;;;;;;;13.73;8.48;;;17.20;55.90;;;;;;6228496;23;20341;-75
2021/03/24 12:17:42;;;;;;;11.85;7.63;;;17.30;55.80;;;;;;6229214;23;20083;-77
2021/03/24 12:20:18;;;;;;;12.65;8.10;;;17.40;55.70;;;;;;6228793;23;20441;-77
2021/03/24 12:22:53;;;;;;;12.07;7.80;;;17.40;55.60;;;;;;6228744;23;20013;-75
2021/03/24 12:25:20;;;;;;;12.32;7.57;;;17.50;55.70;;;;;;6228851;23;20009;-76
2021/03/24 12:27:56;;;;;;;10.88;7.35;;;17.50;55.40;;;;;;6228671;23;20016;-76
2021/03/24 12:30:37;;;;;;;10.95;7.13;;;17.60;55.50;;;;;;6228780;23;20413;-75
2021/03/24 12:33:08;;;;;;;13.27;7.00;;;17.60;55.40;;;;;;6229080;23;20013;-74
2021/03/24 12:35:35;;;;;;;12.88;8.48;;;17.60;55.40;;;;;;6228996;23;20106;-75
2021/03/24 12:38:20;;;;;;;13.20;7.03;;;17.60;55.30;;;;;;6227798;23;20009;-75
2021/03/24 12:40:52;;;;;;;11.75;6.85;;;17.60;55.30;;;;;;6227957;23;20271;-77
2021/03/24 12:43:34;;;;;;;12.23;6.70;;;17.60;55.20;;;;;;6202095;23;20426;-73
2021/03/24 12:46:15;;;;;;;13.38;7.30;;;17.60;55.20;;;;;;6228807;23;20009;-78
2021/03/24 12:48:59;;;;;;;14.52;7.03;;;17.60;55.30;;;;;;6202292;23;20008;-77
2021/03/24 12:51:42;;;;;;;14.95;7.97;;;17.60;55.40;;;;;;6228116;23;20008;-79
2021/03/24 12:54:11;;;;;;;18.38;8.13;;;17.60;55.40;;;;;;6192112;23;20067;-78
2021/03/24 12:56:58;;;;;;;13.68;7.03;;;17.60;55.30;;;;;;6202183;23;20017;-77
2021/03/24 12:59:48;;;;;;;11.98;6.78;;;17.60;55.30;;;;;;6202153;23;20082;-76
2021/03/24 13:02:41;;;;;;;10.88;6.93;;;17.50;55.30;;;;;;6228244;23;20079;-76
2021/03/24 13:05:21;;;;;;;9.55;6.88;;;17.50;55.20;;;;;;6228393;23;20015;-75
2021/03/24 13:08:13;;;;;;;11.95;6.75;;;17.50;55.30;;;;;;6227915;23;20043;-77
2021/03/24 13:10:51;;;;;;;12.05;7.20;;;17.50;56.10;;;;;;6228126;23;20082;-77
2021/03/24 13:13:28;;;;;;;10.63;6.70;;;17.40;55.40;;;;;;6228091;23;20035;-77
2021/03/24 13:16:08;;;;;;;11.45;6.22;;;17.40;55.50;;;;;;6202157;23;20067;-77
2021/03/24 13:19:01;;;;;;;11.48;6.68;;;17.30;55.50;;;;;;6228091;23;20074;-77
2021/03/24 13:21:39;;;;;;;11.07;6.95;;;17.30;56.10;;;;;;6228214;23;20023;-77
2021/03/24 13:24:21;;;;;;;11.68;6.35;;;17.20;55.60;;;;;;6218082;23;20020;-77
2021/03/24 13:26:47;;;;;;;13.10;7.18;;;17.20;55.60;;;;;;6228043;23;20017;-77
2021/03/24 13:29:26;;;;;;;11.02;7.20;;;17.20;55.50;;;;;;6201898;23;20013;-76
2021/03/24 13:32:00;;;;;;;11.43;6.45;;;17.10;55.50;;;;;;6228751;23;20016;-78
2021/03/24 13:34:40;;;;;;;11.35;7.18;;;17.10;55.50;;;;;;6218065;23;20024;-77
2021/03/24 13:37:15;;;;;;;10.98;7.50;;;17.10;55.60;;;;;;6228473;23;20024;-78
2021/03/24 13:40:06;;;;;;;11.95;7.32;;;17.10;55.70;;;;;;6228092;23;20008;-77
2021/03/24 13:42:34;;;;;;;13.20;7.30;;;17.00;55.70;;;;;;6227597;23;20465;-77
2021/03/24 13:45:05;;;;;;;12.27;6.70;;;17.00;55.70;;;;;;6227997;23;20013;-76
2021/03/24 13:47:41;;;;;;;13.05;7.88;;;17.00;55.70;;;;;;6202487;23;20071;-76
2021/03/24 13:50:30;;;;;;;10.82;6.75;;;17.00;55.70;;;;;;6227546;23;20021;-76
2021/03/24 13:53:37;;;;;;;11.00;7.63;;;16.90;55.80;;;;;;6227857;23;20058;-76
2021/03/24 13:56:11;;;;;;;8.77;6.72;;;16.90;55.70;;;;;;6177143;23;20301;-76
2021/03/24 13:59:10;;;;;;;12.57;6.68;;;16.90;55.80;;;;;;6194426;23;20045;-76
2021/03/24 14:02:01;;;;;;;9.10;6.75;;;16.90;55.70;;;;;;6227593;23;20008;-77
2021/03/24 14:04:54;;;;;;;8.90;6.38;;;16.80;55.60;;;;;;6227551;23;20004;-77
2021/03/24 14:07:39;;;;;;;9.75;6.15;;;16.80;55.60;;;;;;6227864;23;20016;-77
2021/03/24 14:10:12;;;;;;;11.25;6.70;;;16.80;55.70;;;;;;6201762;23;20013;-77
2021/03/24 14:12:53;;;;;;;9.70;6.55;;;16.80;55.70;;;;;;6227855;23;20028;-77
2021/03/24 14:15:37;;;;;;;20.60;11.63;;;16.80;55.70;;;;;;6227737;23;20406;-77
2021/03/24 14:18:19;;;;;;;17.98;11.43;;;16.70;55.20;;;;;;6227945;23;20075;-80
2021/03/24 14:20:55;;;;;;;13.02;8.35;;;16.60;55.00;;;;;;6201271;23;20084;-78
2021/03/24 14:23:55;;;;;;;18.05;8.35;;;16.60;55.60;;;;;;6202395;23;20062;-78
2021/03/24 14:27:10;;;;;;;12.95;8.88;;;16.50;56.00;;;;;;6217383;23;20067;-77
2021/03/24 14:29:52;;;;;;;16.02;8.70;;;16.50;56.30;;;;;;6137135;23;20013;-78
2021/03/24 14:32:32;;;;;;;;;;;16.50;56.60;;;;;;6217712;23;20008;-78
2021/03/24 14:35:04;;;;;;;11.38;7.53;;;16.50;56.50;;;;;;6192401;23;19943;-78
2021/03/24 14:38:15;;;;;;;11.05;7.60;;;16.60;56.80;;;;;;6227207;23;20008;-78
2021/03/24 14:41:20;;;;;;;11.50;6.65;;;16.60;56.60;;;;;;6174969;23;20031;-77
2021/03/24 14:54:52;;;;;;;15.27;6.97;;;16.70;57.10;;;;;;6218893;23;20020;-77
2021/03/24 14:57:35;;;;;;;16.67;6.75;;;16.70;57.20;;;;;;6219309;23;20020;-77
2021/03/24 15:04:22;;;;;;;23.63;7.65;;;16.80;57.30;;;;;;6218586;23;20048;-80
2021/03/24 15:07:23;;;;;;;16.00;7.00;;;16.80;57.00;;;;;;6227889;23;20005;-80
2021/03/24 15:10:29;;;;;;;17.95;7.25;;;16.80;56.80;;;;;;6229770;23;20083;-79
2021/03/24 15:13:02;;;;;;;15.82;6.78;;;16.90;56.80;;;;;;6202832;23;20008;-79
2021/03/24 15:15:55;;;;;;;21.02;8.52;;;16.90;57.10;;;;;;6202984;23;20058;-78
2021/03/24 15:19:09;;;;;;;25.67;12.63;;;16.90;57.10;;;;;;6228713;23;20023;-77
2021/03/24 15:22:13;;;;;;;36.07;20.27;;;16.90;57.40;;;;;;6192211;23;20012;-77
2021/03/24 15:25:19;;;;;;;29.67;19.13;;;16.90;57.60;;;;;;6228647;23;20008;-78
2021/03/24 15:28:11;;;;;;;26.63;15.57;;;16.90;57.90;;;;;;6228511;23;20392;-77
2021/03/24 15:31:00;;;;;;;20.88;12.40;;;17.00;57.30;;;;;;6219077;23;20008;-78
2021/03/24 15:34:20;;;;;;;13.85;9.65;;;17.00;55.80;;;;;;6192359;23;20008;-77
2021/03/24 15:37:19;;;;;;;13.02;8.18;;;17.00;54.60;;;;;;6218759;23;20493;-77
2021/03/24 15:40:25;;;;;;;14.10;8.23;;;16.90;54.40;;;;;;6179511;23;20022;-76
2021/03/24 15:43:23;;;;;;;14.02;6.75;;;16.80;54.10;;;;;;6228986;23;20075;-77
2021/03/24 15:46:23;;;;;;;13.93;6.65;;;16.80;53.80;;;;;;6228554;23;20028;-77
2021/03/24 15:56:41;;;;;;;10.90;5.93;;;16.90;53.70;;;;;;6218694;23;20012;-77
2021/03/24 15:59:13;;;;;;;13.82;5.97;;;16.90;55.00;;;;;;6202182;23;20417;-80
2021/03/24 16:02:09;;;;;;;15.43;6.03;;;16.90;56.10;;;;;;6217603;23;20024;-80
2021/03/24 16:04:54;;;;;;;12.65;5.60;;;17.00;55.50;;;;;;6201781;23;20008;-82
2021/03/24 16:07:37;;;;;;;10.52;4.60;;;17.10;55.50;;;;;;6226902;23;20008;-76
2021/03/24 16:10:24;;;;;;;11.73;5.40;;;17.10;54.50;;;;;;6201896;23;20071;-81
2021/03/24 16:13:10;;;;;;;12.98;5.15;;;17.20;54.60;;;;;;6226847;23;20087;-87
2021/03/24 16:15:51;;;;;;;11.63;4.55;;;17.20;54.20;;;;;;6201661;23;20008;-78
2021/03/24 16:18:23;;;;;;;11.68;5.85;;;17.10;54.20;;;;;;6227757;23;20062;-78
2021/03/24 16:21:09;;;;;;;12.18;4.85;;;17.10;53.20;;;;;;6226172;23;20014;-80
2021/03/24 16:24:03;;;;;;;11.18;4.35;;;17.10;54.20;;;;;;6228344;23;20341;-83
2021/03/24 16:26:50;;;;;;;23.98;5.30;;;17.10;54.70;;;;;;6228016;23;20025;-80
2021/03/24 16:29:31;;;;;;;22.80;5.05;;;17.20;54.90;;;;;;6229043;23;20479;-82
2021/03/24 16:32:27;;;;;;;15.60;3.80;;;17.20;55.60;;;;;;6228213;23;20031;-82
2021/03/24 16:34:57;;;;;;;11.32;3.80;;;17.30;56.10;;;;;;6217661;23;20016;-82
2021/03/24 16:37:42;;;;;;;14.63;3.97;;;17.40;56.40;;;;;;6202050;23;20062;-79
2021/03/24 16:40:41;;;;;;;12.05;3.88;;;17.40;56.90;;;;;;6218156;23;20016;-83
2021/03/24 16:43:39;;;;;;;9.85;3.50;;;17.50;57.30;;;;;;6228647;23;20016;-80
2021/03/24 16:46:24;;;;;;;12.93;3.90;;;17.50;57.40;;;;;;6228300;23;20017;-82
2021/03/24 16:49:23;;;;;;;11.90;4.07;;;17.60;57.60;;;;;;6192354;23;20075;-81
2021/03/24 16:52:01;;;;;;;10.95;3.95;;;17.60;57.70;;;;;;6220812;23;20017;-82
2021/03/24 16:54:52;;;;;;;9.85;3.65;;;17.60;58.00;;;;;;6228703;23;20019;-81
2021/03/24 16:57:46;;;;;;;14.40;3.92;;;17.60;58.30;;;;;;6227705;23;20023;-81
2021/03/24 17:00:52;;;;;;;15.95;4.47;;;17.60;58.20;;;;;;6201815;23;20074;-80
2021/03/24 17:03:37;;;;;;;7.50;3.47;;;17.60;58.30;;;;;;6227291;23;20132;-79
2021/03/24 17:06:14;;;;;;;8.43;3.65;;;17.50;58.40;;;;;;6227899;23;20027;-83
2021/03/24 17:09:18;;;;;;;12.73;4.13;;;17.60;58.40;;;;;;6192115;23;20066;-83
2021/03/24 17:12:04;;;;;;;10.75;3.72;;;17.50;58.40;;;;;;6228333;23;20009;-82
2021/03/24 17:14:43;;;;;;;16.75;4.35;;;17.50;58.50;;;;;;6157415;23;20290;-81
2021/03/24 17:17:15;;;;;;;13.60;4.28;;;17.50;58.70;;;;;;6191319;23;20020;-79
2021/03/24 17:20:08;;;;;;;15.18;5.03;;;17.50;58.60;;;;;;6191686;23;20087;-78
2021/03/24 17:22:37;;;;;;;18.63;4.15;;;17.40;58.50;;;;;;6228226;23;20013;-79
2021/03/24 17:25:20;;;;;;;15.55;4.95;;;17.40;58.50;;;;;;6202189;23;20082;-78
2021/03/24 17:27:46;;;;;;;14.68;4.30;;;17.40;58.30;;;;;;6217442;23;20298;-79
2021/03/24 17:30:12;;;;;;;13.45;4.45;;;17.30;58.30;;;;;;6228009;23;20013;-79